createdAt,value
2023-06-08T00:02:29.888Z,14.95
2023-06-08T00:04:58.711Z,14.83
2023-06-08T00:07:25.974Z,15.12
2023-06-08T00:09:52.699Z,14.99
2023-06-08T00:12:19.734Z,14.90
2023-06-08T00:14:46.955Z,14.73
2023-06-08T00:17:14.811Z,14.77
2023-06-08T00:19:44.021Z,14.72
2023-06-08T00:22:14.850Z,14.80
2023-06-08T00:24:41.701Z,14.92
2023-06-08T00:27:09.556Z,14.98
2023-06-08T00:29:36.306Z,14.97
2023-06-08T00:32:03.165Z,14.86
2023-06-08T00:34:29.891Z,14.76
2023-06-08T00:36:56.643Z,14.80
2023-06-08T00:39:24.024Z,14.71
2023-06-08T00:41:50.658Z,14.63
2023-06-08T00:44:17.262Z,14.60
2023-06-08T00:46:44.103Z,14.70
2023-06-08T00:49:17.421Z,14.83
2023-06-08T00:51:46.165Z,14.70
2023-06-08T00:54:15.929Z,14.47
2023-06-08T00:56:49.986Z,14.52
2023-06-08T00:59:17.668Z,14.51
2023-06-08T01:01:46.340Z,14.62
2023-06-08T01:04:15.840Z,14.60
2023-06-08T01:06:47.543Z,14.45
2023-06-08T01:09:14.167Z,14.37
2023-06-08T01:12:04.560Z,14.37
2023-06-08T01:14:42.465Z,14.51
2023-06-08T01:17:13.749Z,14.52
2023-06-08T01:20:09.239Z,14.55
2023-06-08T01:22:39.181Z,14.36
2023-06-08T01:25:09.820Z,14.32
2023-06-08T01:27:38.260Z,14.28
2023-06-08T01:30:06.377Z,14.17
2023-06-08T01:32:33.889Z,14.17
2023-06-08T01:35:00.854Z,14.13
2023-06-08T01:37:27.333Z,14.10
2023-06-08T01:40:31.163Z,13.94
2023-06-08T01:43:00.031Z,13.93
2023-06-08T01:45:31.209Z,14.08
2023-06-08T01:48:07.085Z,14.07
2023-06-08T01:50:35.590Z,14.00
2023-06-08T01:53:02.562Z,13.97
2023-06-08T01:55:29.264Z,13.82
2023-06-08T01:57:56.666Z,13.64
2023-06-08T02:00:23.748Z,13.91
2023-06-08T02:02:50.824Z,13.97
2023-06-08T02:05:18.201Z,14.02
2023-06-08T02:07:45.070Z,13.98
2023-06-08T02:10:13.264Z,14.04
2023-06-08T02:12:41.056Z,13.83
2023-06-08T02:15:08.256Z,13.90
2023-06-08T02:17:36.813Z,13.88
2023-06-08T02:20:10.527Z,13.89
2023-06-08T02:22:38.633Z,13.87
2023-06-08T02:25:07.122Z,13.87
2023-06-08T02:27:37.810Z,13.83
2023-06-08T02:30:08.562Z,13.86
2023-06-08T02:32:35.680Z,13.83
2023-06-08T02:35:04.947Z,13.87
2023-06-08T02:37:32.154Z,13.79
2023-06-08T02:39:58.952Z,13.63
2023-06-08T02:42:25.695Z,13.66
2023-06-08T02:44:52.358Z,13.58
2023-06-08T02:47:19.376Z,13.54
2023-06-08T02:49:46.136Z,13.71
2023-06-08T02:52:12.845Z,13.57
2023-06-08T02:54:39.431Z,13.63
2023-06-08T02:57:06.936Z,13.65
2023-06-08T02:59:34.098Z,13.53
2023-06-08T03:02:00.769Z,13.57
2023-06-08T03:04:29.193Z,13.46
2023-06-08T03:06:55.868Z,13.35
2023-06-08T03:09:29.742Z,13.32
2023-06-08T03:11:57.740Z,13.46
2023-06-08T03:14:29.899Z,13.51
2023-06-08T03:17:03.842Z,13.21
2023-06-08T03:19:31.736Z,13.06
2023-06-08T03:22:06.098Z,12.94
2023-06-08T03:24:34.158Z,12.83
2023-06-08T03:27:04.939Z,13.33
2023-06-08T03:29:31.904Z,13.20
2023-06-08T03:31:59.053Z,12.95
2023-06-08T03:34:29.243Z,13.11
2023-06-08T03:36:56.718Z,12.96
2023-06-08T03:39:24.090Z,12.94
2023-06-08T03:41:51.259Z,12.96
2023-06-08T03:44:18.653Z,13.00
2023-06-08T03:46:46.478Z,12.93
2023-06-08T03:49:13.113Z,13.09
2023-06-08T03:51:40.702Z,13.06
2023-06-08T03:54:07.480Z,13.08
2023-06-08T03:56:34.068Z,13.00
2023-06-08T03:59:01.274Z,13.03
2023-06-08T04:01:28.436Z,13.07
2023-06-08T04:03:55.579Z,13.02
2023-06-08T04:06:24.572Z,12.93
2023-06-08T04:08:51.839Z,13.02
2023-06-08T04:11:18.543Z,13.04
2023-06-08T04:13:45.209Z,13.33
2023-06-08T04:16:12.826Z,13.46
2023-06-08T04:18:41.243Z,13.54
2023-06-08T04:21:08.633Z,13.50
2023-06-08T04:23:38.466Z,13.59
2023-06-08T04:26:07.496Z,13.69
2023-06-08T04:28:35.303Z,13.74
2023-06-08T04:31:02.662Z,13.92
2023-06-08T04:33:29.560Z,14.07
2023-06-08T04:35:57.798Z,14.19
2023-06-08T04:38:24.567Z,14.25
2023-06-08T04:40:55.848Z,14.52
2023-06-08T04:43:23.552Z,14.66
2023-06-08T04:45:58.732Z,14.72
2023-06-08T04:48:27.203Z,14.83
2023-06-08T04:50:54.663Z,15.04
2023-06-08T04:53:24.798Z,15.07
2023-06-08T04:55:58.248Z,15.21
2023-06-08T04:58:26.522Z,15.37
2023-06-08T05:00:53.796Z,15.45
2023-06-08T05:03:21.372Z,15.51
2023-06-08T05:05:48.502Z,15.73
2023-06-08T05:08:15.619Z,15.91
2023-06-08T05:10:42.251Z,16.10
2023-06-08T05:13:09.102Z,16.18
2023-06-08T05:15:35.897Z,16.31
2023-06-08T05:18:02.548Z,16.44
2023-06-08T05:20:30.892Z,16.41
2023-06-08T05:22:58.200Z,16.65
2023-06-08T05:25:24.951Z,16.83
2023-06-08T05:27:51.721Z,16.89
2023-06-08T05:30:18.364Z,16.97
2023-06-08T05:32:44.955Z,17.23
2023-06-08T05:35:11.654Z,17.58
2023-06-08T05:37:38.220Z,17.97
2023-06-08T05:40:06.091Z,18.24
2023-06-08T05:42:32.941Z,18.19
2023-06-08T05:44:59.565Z,18.31
2023-06-08T05:47:30.014Z,18.20
2023-06-08T05:49:58.796Z,18.09
2023-06-08T05:52:25.332Z,18.18
2023-06-08T05:54:51.913Z,18.26
2023-06-08T05:57:18.570Z,18.13
2023-06-08T05:59:45.301Z,18.30
2023-06-08T06:02:12.519Z,18.48
2023-06-08T06:04:39.302Z,18.83
2023-06-08T06:07:07.327Z,18.79
2023-06-08T06:09:34.494Z,18.59
2023-06-08T06:12:01.298Z,18.61
2023-06-08T06:14:36.450Z,18.59
2023-06-08T06:17:07.477Z,18.56
2023-06-08T06:19:38.134Z,18.72
2023-06-08T06:22:10.745Z,18.65
2023-06-08T06:24:37.988Z,18.89
2023-06-08T06:27:06.700Z,18.89
2023-06-08T06:29:33.921Z,19.14
2023-06-08T06:32:01.017Z,19.04
2023-06-08T06:34:27.792Z,18.90
2023-06-08T06:36:54.759Z,18.76
2023-06-08T06:39:21.582Z,18.70
2023-06-08T06:41:49.573Z,18.71
2023-06-08T06:44:16.280Z,18.58
2023-06-08T06:46:43.203Z,18.55
2023-06-08T06:49:09.831Z,18.52
2023-06-08T06:51:37.584Z,18.64
2023-06-08T06:54:04.602Z,18.65
2023-06-08T06:56:32.094Z,18.66
2023-06-08T06:58:58.690Z,18.91
2023-06-08T07:01:25.661Z,19.48
2023-06-08T07:03:52.583Z,19.60
2023-06-08T07:06:24.382Z,19.82
2023-06-08T07:08:51.557Z,19.62
2023-06-08T07:11:18.109Z,19.89
2023-06-08T07:13:44.839Z,20.06
2023-06-08T07:16:11.475Z,20.25
2023-06-08T07:18:38.441Z,20.21
2023-06-08T07:21:05.049Z,20.48
2023-06-08T07:23:40.578Z,20.65
2023-06-08T07:26:29.081Z,20.71
2023-06-08T07:28:58.751Z,20.40
2023-06-08T07:31:26.920Z,20.50
2023-06-08T07:33:53.696Z,20.78
2023-06-08T07:36:21.737Z,20.92
2023-06-08T07:38:51.779Z,21.17
2023-06-08T07:41:19.422Z,21.26
2023-06-08T07:43:46.444Z,21.15
2023-06-08T07:46:14.112Z,21.35
2023-06-08T07:48:40.722Z,21.36
2023-06-08T07:51:07.348Z,21.78
2023-06-08T07:53:38.582Z,22.19
2023-06-08T07:56:05.900Z,22.11
2023-06-08T07:58:33.156Z,22.39
2023-06-08T08:01:03.704Z,22.56
2023-06-08T08:03:30.811Z,23.13
2023-06-08T08:05:57.716Z,23.50
2023-06-08T08:08:24.486Z,23.77
2023-06-08T08:10:51.289Z,23.95
2023-06-08T08:13:18.960Z,23.82
2023-06-08T08:15:46.690Z,23.75
2023-06-08T08:18:14.472Z,23.66
2023-06-08T08:20:41.337Z,23.37
2023-06-08T08:23:08.040Z,23.69
2023-06-08T08:25:36.331Z,23.53
2023-06-08T08:28:03.094Z,23.36
2023-06-08T08:30:29.842Z,22.85
2023-06-08T08:32:56.686Z,23.04
2023-06-08T08:35:29.397Z,22.88
2023-06-08T08:37:57.491Z,22.72
2023-06-08T08:40:24.758Z,23.10
2023-06-08T08:43:17.064Z,22.94
2023-06-08T08:45:46.580Z,23.14
2023-06-08T08:48:16.855Z,23.04
2023-06-08T08:50:45.480Z,23.03
2023-06-08T08:53:13.137Z,23.24
2023-06-08T08:55:42.463Z,23.20
2023-06-08T08:58:10.716Z,22.68
2023-06-08T09:00:37.554Z,23.17
2023-06-08T09:03:04.472Z,23.10
2023-06-08T09:05:31.170Z,23.09
2023-06-08T09:07:57.924Z,23.78
2023-06-08T09:10:26.899Z,24.11
2023-06-08T09:12:58.482Z,24.07
2023-06-08T09:15:29.585Z,24.23
2023-06-08T09:17:57.324Z,23.89
2023-06-08T09:20:32.608Z,23.92
2023-06-08T09:22:59.870Z,23.97
2023-06-08T09:25:38.526Z,24.33
2023-06-08T09:28:18.962Z,24.24
2023-06-08T09:30:51.565Z,24.55
2023-06-08T09:33:29.102Z,25.12
2023-06-08T09:35:58.591Z,25.72
2023-06-08T09:38:29.089Z,25.81
2023-06-08T09:41:22.844Z,25.92
2023-06-08T09:43:51.679Z,25.20
2023-06-08T09:46:36.194Z,25.65
2023-06-08T09:49:08.422Z,25.19
2023-06-08T09:51:38.769Z,25.25
2023-06-08T09:54:06.935Z,24.65
2023-06-08T09:56:34.213Z,25.22
2023-06-08T09:59:07.770Z,25.03
2023-06-08T10:01:44.276Z,25.02
2023-06-08T10:04:30.921Z,25.09
2023-06-08T10:06:58.679Z,25.16
2023-06-08T10:09:32.113Z,24.77
2023-06-08T10:12:01.386Z,24.78
2023-06-08T10:14:28.176Z,24.95
2023-06-08T10:16:57.312Z,24.97
2023-06-08T10:19:24.984Z,24.94
2023-06-08T10:21:53.291Z,25.22
2023-06-08T10:24:23.295Z,25.15
2023-06-08T10:26:51.445Z,25.35
2023-06-08T10:29:27.059Z,25.35
2023-06-08T10:31:54.220Z,25.37
2023-06-08T10:34:21.047Z,25.66
2023-06-08T10:36:47.778Z,25.68
2023-06-08T10:39:17.395Z,25.53
2023-06-08T10:41:45.655Z,25.85
2023-06-08T10:44:27.322Z,26.24
2023-06-08T10:47:02.421Z,26.39
2023-06-08T10:49:31.344Z,26.53
2023-06-08T10:51:59.519Z,26.74
2023-06-08T10:54:26.858Z,26.94
2023-06-08T10:57:12.492Z,27.24
2023-06-08T10:59:42.733Z,26.86
2023-06-08T11:02:09.451Z,27.40
2023-06-08T11:04:40.472Z,27.30
2023-06-08T11:07:10.416Z,27.53
2023-06-08T11:09:37.992Z,27.83
2023-06-08T11:12:05.291Z,27.90
2023-06-08T11:14:31.878Z,28.04
2023-06-08T11:16:58.637Z,28.21
2023-06-08T11:19:29.250Z,28.85
2023-06-08T11:21:56.185Z,29.37
2023-06-08T11:24:30.090Z,29.47
2023-06-08T11:27:04.259Z,28.85
2023-06-08T11:29:32.292Z,28.49
2023-06-08T11:32:11.631Z,28.50
2023-06-08T11:34:39.156Z,28.19
2023-06-08T11:37:05.858Z,27.64
2023-06-08T11:39:34.732Z,27.34
2023-06-08T11:42:01.749Z,27.86
2023-06-08T11:44:28.408Z,28.18
2023-06-08T11:46:55.331Z,27.50
2023-06-08T11:49:21.959Z,27.68
2023-06-08T11:51:51.458Z,27.86
2023-06-08T11:54:18.428Z,27.53
2023-06-08T11:56:46.647Z,27.35
2023-06-08T11:59:17.121Z,27.35
2023-06-08T12:02:00.514Z,27.46
2023-06-08T12:04:35.187Z,27.72
2023-06-08T12:07:12.337Z,27.96
2023-06-08T12:09:39.605Z,27.81
2023-06-08T12:12:10.525Z,27.58
2023-06-08T12:14:37.348Z,27.74
2023-06-08T12:17:07.391Z,27.64
2023-06-08T12:19:34.036Z,27.69
2023-06-08T12:22:00.726Z,27.53
2023-06-08T12:24:27.358Z,27.77
2023-06-08T12:26:53.965Z,27.63
2023-06-08T12:29:23.013Z,27.88
2023-06-08T12:31:50.165Z,28.37
2023-06-08T12:34:16.892Z,28.72
2023-06-08T12:36:43.540Z,28.22
2023-06-08T12:39:10.306Z,29.07
2023-06-08T12:41:36.945Z,28.93
2023-06-08T12:44:04.173Z,29.28
2023-06-08T12:46:30.751Z,30.18
2023-06-08T12:48:59.397Z,30.17
2023-06-08T12:51:26.068Z,29.36
2023-06-08T12:53:52.580Z,29.60
2023-06-08T12:56:19.214Z,30.17
2023-06-08T12:58:45.836Z,30.14
2023-06-08T13:01:12.462Z,30.50
2023-06-08T13:03:40.654Z,31.71
2023-06-08T13:06:07.645Z,31.86
2023-06-08T13:08:34.254Z,30.93
2023-06-08T13:11:01.864Z,30.18
2023-06-08T13:13:28.902Z,29.55
2023-06-08T13:15:56.416Z,30.55
2023-06-08T13:18:23.883Z,29.80
2023-06-08T13:20:50.675Z,29.52
2023-06-08T13:23:17.933Z,28.71
2023-06-08T13:25:44.623Z,29.45
2023-06-08T13:28:12.675Z,29.80
2023-06-08T13:30:39.332Z,29.28
2023-06-08T13:33:05.963Z,29.51
2023-06-08T13:35:33.350Z,29.92
2023-06-08T13:38:00.517Z,29.68
2023-06-08T13:40:33.168Z,30.10
2023-06-08T13:43:00.909Z,29.42
2023-06-08T13:45:28.139Z,30.70
2023-06-08T13:47:55.545Z,30.42
2023-06-08T13:50:23.344Z,30.19
2023-06-08T13:52:50.316Z,29.54
2023-06-08T13:55:17.413Z,29.70
2023-06-08T13:57:44.054Z,29.45
2023-06-08T14:00:12.184Z,30.02
2023-06-08T14:02:48.476Z,29.17
2023-06-08T14:05:19.647Z,29.47
2023-06-08T14:07:47.118Z,29.62
2023-06-08T14:10:14.074Z,29.17
2023-06-08T14:12:51.739Z,30.36
2023-06-08T14:15:18.920Z,31.37
2023-06-08T14:17:46.422Z,30.68
2023-06-08T14:20:13.314Z,30.14
2023-06-08T14:22:39.934Z,30.03
2023-06-08T14:25:12.112Z,30.49
2023-06-08T14:27:38.689Z,31.18
2023-06-08T14:30:07.075Z,32.21
2023-06-08T14:32:34.121Z,32.96
2023-06-08T14:35:00.832Z,34.33
2023-06-08T14:37:39.865Z,35.73
2023-06-08T14:40:07.790Z,34.30
2023-06-08T14:42:34.771Z,34.64
2023-06-08T14:45:01.409Z,35.33
2023-06-08T14:47:27.969Z,35.46
2023-06-08T14:49:58.557Z,34.85
2023-06-08T14:52:25.061Z,35.50
2023-06-08T14:54:51.664Z,34.36
2023-06-08T14:57:18.295Z,32.55
2023-06-08T14:59:44.905Z,31.78
2023-06-08T15:02:11.554Z,30.37
2023-06-08T15:04:40.767Z,30.11
2023-06-08T15:07:07.611Z,29.60
2023-06-08T15:09:34.041Z,29.50
2023-06-08T15:12:00.639Z,29.29
2023-06-08T15:14:28.433Z,29.21
2023-06-08T15:16:54.929Z,29.38
2023-06-08T15:19:21.511Z,29.89
2023-06-08T15:21:48.201Z,29.50
2023-06-08T15:24:14.882Z,29.62
2023-06-08T15:26:41.559Z,29.49
2023-06-08T15:29:09.862Z,29.21
2023-06-08T15:31:38.813Z,29.10
2023-06-08T15:34:05.470Z,28.39
2023-06-08T15:36:32.114Z,28.35
2023-06-08T15:38:59.082Z,28.50
2023-06-08T15:41:26.337Z,28.53
2023-06-08T15:43:52.948Z,28.94
2023-06-08T15:46:19.616Z,33.86
2023-06-08T15:48:49.419Z,37.34
2023-06-08T15:51:15.941Z,40.28
2023-06-08T15:53:43.215Z,40.60
2023-06-08T15:56:11.490Z,38.91
2023-06-08T15:58:40.707Z,38.29
2023-06-08T16:01:07.300Z,37.50
2023-06-08T16:03:33.896Z,35.62
2023-06-08T16:06:00.518Z,33.19
2023-06-08T16:08:27.975Z,33.04
2023-06-08T16:11:03.694Z,33.30
2023-06-08T16:13:30.998Z,32.07
2023-06-08T16:15:57.912Z,31.63
2023-06-08T16:18:25.147Z,32.43
2023-06-08T16:20:52.176Z,31.52
2023-06-08T16:23:21.395Z,29.56
2023-06-08T16:25:50.732Z,30.02
2023-06-08T16:28:17.195Z,28.38
2023-06-08T16:30:43.943Z,28.59
2023-06-08T16:33:11.081Z,29.15
2023-06-08T16:35:38.141Z,31.95
2023-06-08T16:38:09.625Z,31.53
2023-06-08T16:40:36.186Z,33.05
2023-06-08T16:43:02.701Z,32.91
2023-06-08T16:45:32.499Z,34.76
2023-06-08T16:47:59.496Z,33.57
2023-06-08T16:50:32.286Z,36.05
2023-06-08T16:52:58.840Z,36.69
2023-06-08T16:55:25.328Z,33.90
2023-06-08T16:57:51.944Z,34.23
2023-06-08T17:00:18.875Z,36.18
2023-06-08T17:02:55.089Z,33.34
2023-06-08T17:05:21.705Z,30.50
2023-06-08T17:07:48.310Z,29.10
2023-06-08T17:10:14.910Z,28.30
2023-06-08T17:12:41.504Z,27.81
2023-06-08T17:15:15.444Z,26.33
2023-06-08T17:17:41.929Z,26.58
2023-06-08T17:20:09.211Z,26.57
2023-06-08T17:22:35.888Z,26.32
2023-06-08T17:25:02.464Z,26.76
2023-06-08T17:27:28.940Z,26.14
2023-06-08T17:29:56.700Z,25.27
2023-06-08T17:32:25.089Z,24.94
2023-06-08T17:34:52.121Z,24.82
2023-06-08T17:37:19.070Z,24.81
2023-06-08T17:39:45.584Z,24.43
2023-06-08T17:42:19.128Z,24.64
2023-06-08T17:44:45.678Z,25.16
2023-06-08T17:47:12.511Z,25.02
2023-06-08T17:49:42.736Z,25.13
2023-06-08T17:52:09.677Z,24.82
2023-06-08T17:54:40.407Z,24.04
2023-06-08T17:57:07.157Z,24.12
2023-06-08T17:59:33.658Z,24.00
2023-06-08T18:02:00.941Z,24.02
2023-06-08T18:04:27.492Z,24.23
2023-06-08T18:06:54.058Z,24.13
2023-06-08T18:09:26.200Z,23.77
2023-06-08T18:11:55.794Z,24.20
2023-06-08T18:14:22.520Z,24.23
2023-06-08T18:16:49.178Z,23.59
2023-06-08T18:19:15.861Z,23.43
2023-06-08T18:21:43.546Z,23.67
2023-06-08T18:24:10.845Z,23.45
2023-06-08T18:26:37.548Z,23.46
2023-06-08T18:29:04.364Z,23.17
2023-06-08T18:31:31.085Z,22.94
2023-06-08T18:33:57.601Z,22.80
2023-06-08T18:36:27.451Z,22.81
2023-06-08T18:38:56.120Z,23.05
2023-06-08T18:41:23.232Z,23.10
2023-06-08T18:43:50.576Z,22.87
2023-06-08T18:46:18.555Z,22.51
2023-06-08T18:48:47.274Z,22.56
2023-06-08T18:51:13.810Z,22.23
2023-06-08T18:53:40.358Z,22.14
2023-06-08T18:56:06.858Z,22.07
2023-06-08T18:58:33.386Z,22.07
2023-06-08T19:00:59.929Z,21.89
2023-06-08T19:03:26.601Z,21.90
2023-06-08T19:05:53.205Z,21.79
2023-06-08T19:08:19.716Z,21.77
2023-06-08T19:10:46.475Z,21.73
2023-06-08T19:13:14.385Z,21.49
2023-06-08T19:15:43.770Z,21.47
2023-06-08T19:18:10.452Z,21.32
2023-06-08T19:20:37.057Z,21.11
2023-06-08T19:23:03.741Z,21.22
2023-06-08T19:25:30.300Z,21.03
2023-06-08T19:27:56.859Z,20.83
2023-06-08T19:30:23.461Z,20.64
2023-06-08T19:32:50.026Z,20.30
2023-06-08T19:35:16.675Z,20.13
2023-06-08T19:37:43.221Z,20.06
2023-06-08T19:40:11.276Z,19.91
2023-06-08T19:42:37.918Z,19.73
2023-06-08T19:45:04.928Z,19.80
2023-06-08T19:47:32.800Z,19.73
2023-06-08T19:50:00.059Z,19.58
2023-06-08T19:52:26.669Z,19.54
2023-06-08T19:54:53.168Z,19.57
2023-06-08T19:57:19.725Z,19.44
2023-06-08T19:59:46.336Z,19.51
2023-06-08T20:02:13.218Z,19.58
2023-06-08T20:04:39.875Z,19.49
2023-06-08T20:07:11.133Z,19.23
2023-06-08T20:09:39.119Z,19.35
2023-06-08T20:12:06.631Z,19.38
2023-06-08T20:14:33.203Z,19.31
2023-06-08T20:17:02.089Z,19.07
2023-06-08T20:19:32.132Z,19.01
2023-06-08T20:21:58.674Z,18.97
2023-06-08T20:24:25.580Z,18.58
2023-06-08T20:26:52.134Z,18.53
2023-06-08T20:29:18.698Z,18.52
2023-06-08T20:31:45.331Z,18.39
2023-06-08T20:34:12.298Z,18.51
2023-06-08T20:36:39.200Z,18.47
2023-06-08T20:39:06.493Z,18.21
2023-06-08T20:41:33.584Z,18.11
2023-06-08T20:44:02.794Z,18.27
2023-06-08T20:46:33.397Z,18.21
2023-06-08T20:49:03.417Z,18.26
2023-06-08T20:51:30.034Z,18.32
2023-06-08T20:53:56.697Z,17.93
2023-06-08T20:56:23.429Z,17.88
2023-06-08T20:58:50.086Z,17.55
2023-06-08T21:01:16.660Z,17.87
2023-06-08T21:03:46.681Z,17.79
2023-06-08T21:06:13.459Z,17.45
2023-06-08T21:08:40.006Z,17.64
2023-06-08T21:11:06.979Z,17.51
2023-06-08T21:13:33.722Z,17.11
2023-06-08T21:16:00.315Z,16.98
2023-06-08T21:18:26.964Z,16.86
2023-06-08T21:20:53.572Z,17.22
2023-06-08T21:23:20.068Z,16.94
2023-06-08T21:25:46.530Z,17.10
2023-06-08T21:28:13.107Z,17.28
2023-06-08T21:30:39.646Z,17.05
2023-06-08T21:33:06.354Z,16.75
2023-06-08T21:35:33.122Z,16.76
2023-06-08T21:37:59.652Z,16.63
2023-06-08T21:40:27.957Z,16.97
2023-06-08T21:42:54.950Z,16.78
2023-06-08T21:45:21.658Z,16.50
2023-06-08T21:47:48.306Z,16.30
2023-06-08T21:50:15.789Z,16.04
2023-06-08T21:52:43.514Z,16.14
2023-06-08T21:55:10.555Z,16.15
2023-06-08T21:57:37.269Z,16.08
2023-06-08T22:00:06.805Z,16.15
2023-06-08T22:02:33.462Z,15.97
2023-06-08T22:05:00.817Z,15.88
2023-06-08T22:07:27.421Z,16.02
2023-06-08T22:09:54.226Z,16.16
2023-06-08T22:12:23.246Z,16.25
2023-06-08T22:14:53.338Z,16.00
2023-06-08T22:17:20.607Z,15.98
2023-06-08T22:19:54.693Z,15.93
2023-06-08T22:22:33.530Z,15.56
2023-06-08T22:24:59.969Z,15.70
2023-06-08T22:27:26.504Z,15.73
2023-06-08T22:29:53.882Z,15.76
2023-06-08T22:32:20.485Z,16.04
2023-06-08T22:34:47.447Z,15.83
2023-06-08T22:37:14.009Z,15.92
2023-06-08T22:39:40.534Z,16.09
2023-06-08T22:42:07.706Z,16.02
2023-06-08T22:44:34.324Z,15.88
2023-06-08T22:47:01.270Z,15.84
2023-06-08T22:49:29.326Z,15.69
2023-06-08T22:51:56.341Z,15.69
2023-06-08T22:54:22.936Z,15.42
2023-06-08T22:56:49.466Z,15.62
2023-06-08T22:59:16.075Z,15.13
2023-06-08T23:01:42.942Z,15.30
2023-06-08T23:04:09.540Z,15.50
2023-06-08T23:06:37.855Z,15.56
2023-06-08T23:09:05.087Z,15.37
2023-06-08T23:11:33.325Z,15.40
2023-06-08T23:14:09.294Z,15.25
2023-06-08T23:16:35.879Z,15.22
2023-06-08T23:19:11.519Z,15.16
2023-06-08T23:21:41.017Z,15.41
2023-06-08T23:24:08.428Z,15.25
2023-06-08T23:26:37.908Z,14.98
2023-06-08T23:29:04.818Z,14.96
2023-06-08T23:31:33.944Z,14.91
2023-06-08T23:34:00.673Z,14.74
2023-06-08T23:36:27.318Z,14.79
2023-06-08T23:38:53.850Z,14.95
2023-06-08T23:41:22.404Z,14.98
2023-06-08T23:43:50.478Z,14.62
2023-06-08T23:46:17.278Z,14.49
2023-06-08T23:48:43.817Z,14.21
2023-06-08T23:51:10.311Z,14.53
2023-06-08T23:53:36.841Z,14.86
2023-06-08T23:56:03.422Z,14.65
2023-06-08T23:58:29.907Z,14.50
